Time;durP1;ratioP1;P1;durP2;ratioP2;P2;SDS_P1;SDS_P2;PMS_P1;PMS_P2;Temp;Humidity;BMP_temperature;BMP_pressure;BME280_temperature;BME280_humidity;BME280_pressure;Samples;Min_cycle;Max_cycle;Signal;HPM_P1;HPM_P2
2023/08/09 00:02:17;;;;;;;4.88;2.25;;;14.40;98.00;;;;;;6188932;23;20252;-90
2023/08/09 00:04:42;;;;;;;6.20;2.30;;;14.40;97.70;;;;;;6161973;23;20040;-90
2023/08/09 00:07:08;;;;;;;3.95;1.75;;;14.40;97.40;;;;;;6162094;23;20070;-90
2023/08/09 00:09:33;;;;;;;4.35;1.83;;;14.50;97.10;;;;;;6161898;23;20001;-89
2023/08/09 00:11:59;;;;;;;5.32;2.22;;;14.40;97.30;;;;;;6188587;23;20004;-90
2023/08/09 00:14:25;;;;;;;5.65;2.08;;;14.40;97.30;;;;;;6161441;23;20005;-89
2023/08/09 00:16:50;;;;;;;3.67;1.92;;;14.30;97.80;;;;;;6189571;23;19993;-88
2023/08/09 00:19:16;;;;;;;4.28;2.08;;;14.30;97.10;;;;;;6189863;23;20001;-88
2023/08/09 00:21:42;;;;;;;4.25;1.90;;;14.40;98.00;;;;;;6160757;23;20012;-89
2023/08/09 00:24:08;;;;;;;6.60;2.30;;;14.40;96.70;;;;;;6161775;23;20015;-90
2023/08/09 00:26:33;;;;;;;4.45;1.90;;;14.50;97.30;;;;;;6188519;23;20076;-89
2023/08/09 00:28:59;;;;;;;6.03;2.00;;;14.60;96.10;;;;;;6187891;23;20263;-89
2023/08/09 00:31:24;;;;;;;3.97;1.80;;;14.70;95.80;;;;;;6188633;23;20394;-89
2023/08/09 00:33:50;;;;;;;5.95;2.00;;;14.90;96.20;;;;;;6188809;23;20005;-89
2023/08/09 00:36:15;;;;;;;3.80;1.80;;;14.90;95.80;;;;;;6191039;23;20012;-89
2023/08/09 00:38:42;;;;;;;4.40;2.03;;;15.10;95.70;;;;;;6218953;23;20083;-89
2023/08/09 00:41:07;;;;;;;4.70;1.88;;;15.20;95.10;;;;;;6219076;23;20031;-89
2023/08/09 00:43:33;;;;;;;5.10;1.98;;;15.30;96.00;;;;;;6219145;23;20051;-88
2023/08/09 00:45:59;;;;;;;5.20;1.90;;;15.30;96.00;;;;;;6219196;23;20020;-88
2023/08/09 00:48:25;;;;;;;5.28;2.05;;;15.30;95.10;;;;;;6217846;23;20001;-88
2023/08/09 00:50:51;;;;;;;6.00;1.90;;;15.40;94.20;;;;;;6217624;23;20012;-87
2023/08/09 00:53:17;;;;;;;5.82;2.13;;;15.40;94.40;;;;;;6218827;23;20079;-90
2023/08/09 00:55:43;;;;;;;4.97;1.70;;;15.40;95.00;;;;;;6217819;23;20028;-90
2023/08/09 00:58:08;;;;;;;6.40;1.90;;;15.30;94.80;;;;;;6217867;23;20019;-90
2023/08/09 01:00:34;;;;;;;5.78;1.83;;;15.40;94.10;;;;;;6217701;23;20008;-89
2023/08/09 01:03:00;;;;;;;5.15;2.13;;;15.50;94.00;;;;;;6218680;23;20004;-88
2023/08/09 01:05:32;;;;;;;4.47;2.05;;;15.50;93.30;;;;;;6217538;23;20433;-89
2023/08/09 01:08:21;;;;;;;4.50;2.10;;;15.60;92.50;;;;;;6219175;23;20059;-88
2023/08/09 01:11:01;;;;;;;4.97;1.80;;;15.60;92.90;;;;;;6217342;23;20381;-88
2023/08/09 01:13:28;;;;;;;3.80;1.70;;;15.60;92.80;;;;;;6215776;23;20020;-88
2023/08/09 01:15:54;;;;;;;4.57;1.63;;;15.70;91.90;;;;;;6217814;23;20004;-89
2023/08/09 01:18:22;;;;;;;4.65;1.90;;;15.70;92.70;;;;;;6217483;23;20004;-89
2023/08/09 01:20:49;;;;;;;6.95;1.92;;;15.70;92.10;;;;;;6215280;23;20009;-89
2023/08/09 01:23:18;;;;;;;5.60;2.13;;;15.80;91.30;;;;;;6215903;23;20001;-88
2023/08/09 01:25:45;;;;;;;7.53;2.00;;;16.00;90.60;;;;;;6218170;23;20016;-88
2023/08/09 01:28:13;;;;;;;6.47;2.05;;;16.00;90.50;;;;;;6217213;23;20005;-89
2023/08/09 01:30:38;;;;;;;6.78;1.80;;;16.00;91.00;;;;;;6218354;23;20001;-89
2023/08/09 01:33:04;;;;;;;3.80;1.95;;;16.10;91.40;;;;;;6217068;23;20035;-88
2023/08/09 01:35:38;;;;;;;3.78;1.70;;;16.00;90.40;;;;;;6217434;23;20774;-88
2023/08/09 01:38:19;;;;;;;4.95;1.92;;;16.10;90.40;;;;;;6215717;23;20079;-88
2023/08/09 01:40:45;;;;;;;6.93;2.00;;;16.10;90.40;;;;;;6218598;23;20011;-88
2023/08/09 01:43:11;;;;;;;3.65;1.63;;;16.00;90.60;;;;;;6215430;23;20054;-88
2023/08/09 01:45:37;;;;;;;4.47;1.80;;;15.90;91.10;;;;;;6218649;23;20005;-87
2023/08/09 01:48:05;;;;;;;5.45;1.90;;;15.90;92.20;;;;;;6217628;23;20032;-86
2023/08/09 01:50:31;;;;;;;4.90;1.83;;;15.90;90.90;;;;;;6216781;23;20005;-88
2023/08/09 01:52:57;;;;;;;4.55;2.00;;;15.90;90.70;;;;;;6216505;23;20270;-88
2023/08/09 01:55:25;;;;;;;6.13;2.00;;;16.00;90.60;;;;;;6218607;23;20000;-88
2023/08/09 01:57:52;;;;;;;5.63;1.80;;;16.00;91.70;;;;;;6216322;23;20252;-88
2023/08/09 02:00:19;;;;;;;5.18;2.05;;;15.90;92.10;;;;;;6216892;23;20366;-87
2023/08/09 02:02:46;;;;;;;5.88;1.90;;;16.00;92.00;;;;;;6217584;23;20005;-88
2023/08/09 02:05:11;;;;;;;6.07;2.03;;;15.80;92.50;;;;;;6214902;23;20313;-88
2023/08/09 02:07:37;;;;;;;3.78;1.50;;;15.80;91.90;;;;;;6217942;23;20012;-88
2023/08/09 02:10:04;;;;;;;4.60;1.98;;;15.80;92.80;;;;;;6217748;23;20005;-87
2023/08/09 02:12:30;;;;;;;6.05;2.13;;;15.70;92.10;;;;;;6217527;23;20005;-88
2023/08/09 02:14:56;;;;;;;3.92;1.80;;;15.70;92.80;;;;;;6217135;23;20015;-87
2023/08/09 02:17:22;;;;;;;4.43;1.77;;;15.70;92.10;;;;;;6217971;23;20367;-86
2023/08/09 02:19:48;;;;;;;4.95;1.90;;;15.70;93.80;;;;;;6216163;23;20095;-89
2023/08/09 02:22:17;;;;;;;4.50;2.22;;;15.50;93.80;;;;;;6216187;23;20032;-88
2023/08/09 02:24:43;;;;;;;5.20;1.85;;;15.30;94.90;;;;;;6219614;23;20003;-87
2023/08/09 02:27:09;;;;;;;4.18;2.00;;;15.20;96.60;;;;;;6219989;23;20389;-88
2023/08/09 02:29:36;;;;;;;4.18;1.83;;;15.10;96.20;;;;;;6219940;23;20004;-88
2023/08/09 02:32:02;;;;;;;4.80;1.85;;;15.10;96.70;;;;;;6218936;23;20027;-88
2023/08/09 02:34:28;;;;;;;5.78;2.22;;;15.10;96.60;;;;;;6218807;23;20248;-88
2023/08/09 02:36:54;;;;;;;4.65;1.80;;;15.20;96.10;;;;;;6218153;23;20044;-87
2023/08/09 02:39:20;;;;;;;5.13;1.85;;;15.30;95.00;;;;;;6218553;23;20013;-88
2023/08/09 02:41:46;;;;;;;5.22;2.03;;;15.30;96.00;;;;;;6219203;23;20012;-89
2023/08/09 02:44:12;;;;;;;5.72;1.80;;;15.40;97.00;;;;;;6219817;23;20001;-87
2023/08/09 02:46:37;;;;;;;4.82;2.05;;;15.30;97.80;;;;;;6218046;23;20075;-88
2023/08/09 02:49:03;;;;;;;5.10;2.00;;;15.30;97.60;;;;;;6219875;23;20291;-88
2023/08/09 02:51:29;;;;;;;6.65;1.90;;;15.20;98.00;;;;;;6217490;23;20005;-87
2023/08/09 02:54:01;;;;;;;5.90;1.92;;;15.20;98.00;;;;;;6219800;23;20361;-88
2023/08/09 02:56:28;;;;;;;3.90;1.83;;;15.10;98.00;;;;;;6220258;23;20027;-88
2023/08/09 02:58:54;;;;;;;7.15;2.10;;;14.90;98.00;;;;;;6219963;23;20005;-86
2023/08/09 03:01:21;;;;;;;4.53;1.92;;;14.90;98.00;;;;;;6219140;23;20078;-88
2023/08/09 03:03:48;;;;;;;4.45;1.92;;;14.80;98.00;;;;;;6219931;23;20004;-88
2023/08/09 03:06:14;;;;;;;4.38;2.00;;;14.60;98.00;;;;;;6218368;23;20003;-88
2023/08/09 03:08:39;;;;;;;7.10;2.65;;;14.60;97.40;;;;;;6220614;23;20000;-88
2023/08/09 03:11:05;;;;;;;5.85;2.00;;;14.70;97.20;;;;;;6219448;23;20063;-88
2023/08/09 03:13:31;;;;;;;3.78;1.80;;;14.80;98.00;;;;;;6219690;23;20042;-88
2023/08/09 03:15:56;;;;;;;4.47;2.05;;;14.90;98.00;;;;;;6218023;23;20116;-88
2023/08/09 03:18:22;;;;;;;5.57;2.45;;;14.90;97.10;;;;;;6216792;23;20040;-88
2023/08/09 03:20:47;;;;;;;4.75;2.10;;;14.80;97.90;;;;;;6216615;23;20009;-88
2023/08/09 03:23:13;;;;;;;7.15;1.85;;;14.80;97.10;;;;;;6217979;23;20009;-87
2023/08/09 03:25:39;;;;;;;4.35;2.08;;;15.10;95.60;;;;;;6219712;23;19997;-88
2023/08/09 03:28:04;;;;;;;4.50;1.67;;;15.10;95.60;;;;;;6219354;23;19996;-86
2023/08/09 03:30:30;;;;;;;4.10;1.80;;;15.20;95.30;;;;;;6218645;23;20000;-87
2023/08/09 03:32:56;;;;;;;3.85;1.80;;;15.30;94.90;;;;;;6220090;23;20001;-88
2023/08/09 03:35:21;;;;;;;3.85;1.92;;;15.40;94.60;;;;;;6218519;23;20011;-88
2023/08/09 03:37:47;;;;;;;6.53;1.85;;;15.40;94.40;;;;;;6218166;23;20028;-87
2023/08/09 03:40:13;;;;;;;3.88;1.70;;;15.40;94.80;;;;;;6218447;23;20338;-87
2023/08/09 03:42:43;;;;;;;4.47;2.20;;;15.40;95.00;;;;;;6220209;23;20024;-87
2023/08/09 03:45:09;;;;;;;5.75;2.25;;;15.40;94.50;;;;;;6219995;23;20075;-87
2023/08/09 03:47:38;;;;;;;5.38;1.80;;;15.30;95.20;;;;;;6219660;23;20073;-87
2023/08/09 03:50:05;;;;;;;4.50;1.90;;;15.40;94.70;;;;;;6218367;23;20007;-87
2023/08/09 03:52:32;;;;;;;5.97;1.73;;;15.40;95.10;;;;;;6217253;23;20366;-89
2023/08/09 03:54:59;;;;;;;5.07;1.95;;;15.40;94.50;;;;;;6218070;23;20374;-88
2023/08/09 03:57:27;;;;;;;6.55;1.80;;;15.30;94.10;;;;;;6217008;23;20062;-89
2023/08/09 03:59:54;;;;;;;3.80;1.70;;;15.40;94.30;;;;;;6218382;23;20244;-88
2023/08/09 04:02:20;;;;;;;6.18;1.85;;;15.40;94.10;;;;;;6217069;23;20009;-87
2023/08/09 04:04:45;;;;;;;4.95;1.80;;;15.40;94.00;;;;;;6218857;23;19997;-88
2023/08/09 04:07:11;;;;;;;6.43;1.88;;;15.40;93.50;;;;;;6217350;23;20050;-88
2023/08/09 04:09:37;;;;;;;5.30;1.80;;;15.50;94.50;;;;;;6218727;23;20028;-87
2023/08/09 04:12:03;;;;;;;6.60;2.08;;;15.50;94.90;;;;;;6217353;23;20003;-87
2023/08/09 04:14:29;;;;;;;4.65;1.73;;;15.40;93.90;;;;;;6218561;23;20076;-88
2023/08/09 04:16:56;;;;;;;4.47;1.92;;;15.40;94.40;;;;;;6218890;23;20000;-87
2023/08/09 04:19:24;;;;;;;3.65;1.55;;;15.40;93.90;;;;;;6218483;23;20011;-88
2023/08/09 04:21:50;;;;;;;4.20;1.80;;;15.50;94.10;;;;;;6217289;23;20271;-87
2023/08/09 04:24:16;;;;;;;4.65;1.70;;;15.50;93.60;;;;;;6218355;23;19993;-88
2023/08/09 04:26:45;;;;;;;6.80;2.00;;;15.60;93.20;;;;;;6218823;23;20007;-87
2023/08/09 04:29:11;;;;;;;4.80;2.08;;;15.60;93.50;;;;;;6218537;23;20363;-87
2023/08/09 04:31:36;;;;;;;7.03;1.90;;;15.60;93.70;;;;;;6217941;23;20063;-87
2023/08/09 04:34:02;;;;;;;3.67;1.75;;;15.60;93.90;;;;;;6219113;23;20263;-88
2023/08/09 04:36:29;;;;;;;4.40;1.90;;;15.50;93.30;;;;;;6217947;23;20011;-86
2023/08/09 04:38:57;;;;;;;4.65;1.80;;;15.50;93.10;;;;;;6217813;23;20015;-87
2023/08/09 04:41:24;;;;;;;4.18;1.90;;;15.60;93.30;;;;;;6218993;23;20533;-87
2023/08/09 04:43:50;;;;;;;4.43;1.70;;;15.70;92.80;;;;;;6219406;23;20076;-86
2023/08/09 04:46:16;;;;;;;5.22;1.77;;;15.80;92.70;;;;;;6219005;23;19996;-87
2023/08/09 04:48:43;;;;;;;4.28;1.73;;;15.90;92.00;;;;;;6219585;23;20001;-88
2023/08/09 04:51:09;;;;;;;5.15;2.00;;;15.90;91.90;;;;;;6216130;23;20278;-88
2023/08/09 04:53:35;;;;;;;6.50;1.88;;;15.90;93.00;;;;;;6219232;23;20001;-89
2023/08/09 04:56:03;;;;;;;3.95;1.75;;;15.90;92.30;;;;;;6219149;23;20004;-90
2023/08/09 04:58:31;;;;;;;4.03;1.60;;;16.00;92.30;;;;;;6218370;23;20534;-89
2023/08/09 05:00:57;;;;;;;3.88;1.70;;;16.00;91.80;;;;;;6217066;23;20273;-89
2023/08/09 05:03:23;;;;;;;4.00;2.00;;;16.00;91.90;;;;;;6219117;23;20385;-89
2023/08/09 05:05:49;;;;;;;4.68;2.38;;;16.10;91.60;;;;;;6216800;23;20028;-91
2023/08/09 05:08:15;;;;;;;7.13;2.10;;;16.10;91.40;;;;;;6217908;23;20000;-89
2023/08/09 05:10:40;;;;;;;4.47;1.77;;;16.20;91.30;;;;;;6218168;23;20012;-89
2023/08/09 05:13:09;;;;;;;5.75;1.90;;;16.30;91.20;;;;;;6217893;23;20196;-94
2023/08/09 05:15:34;;;;;;;4.38;1.80;;;16.30;90.60;;;;;;6217068;23;20012;-89
2023/08/09 05:18:00;;;;;;;5.97;1.77;;;16.30;90.30;;;;;;6218392;23;20001;-90
2023/08/09 05:20:25;;;;;;;5.57;2.22;;;16.40;90.20;;;;;;6217150;23;20240;-89
2023/08/09 05:22:51;;;;;;;8.25;2.28;;;16.30;90.10;;;;;;6217884;23;20016;-88
2023/08/09 05:25:18;;;;;;;3.38;1.67;;;16.40;89.90;;;;;;6218837;23;20051;-88
2023/08/09 05:27:48;;;;;;;4.93;1.60;;;16.40;89.80;;;;;;6217361;23;20050;-89
2023/08/09 05:30:15;;;;;;;5.00;1.95;;;16.40;89.80;;;;;;6218335;23;20262;-89
2023/08/09 05:32:41;;;;;;;3.90;1.77;;;16.40;89.80;;;;;;6216073;23;20000;-88
2023/08/09 05:35:07;;;;;;;3.65;1.80;;;16.50;89.10;;;;;;6216349;23;20001;-90
2023/08/09 05:37:32;;;;;;;4.07;1.80;;;16.60;88.90;;;;;;6216192;23;20024;-89
2023/08/09 05:39:58;;;;;;;4.82;1.90;;;16.60;88.90;;;;;;6217178;23;20005;-89
2023/08/09 05:42:23;;;;;;;5.47;2.00;;;16.60;88.70;;;;;;6216525;23;20001;-89
2023/08/09 05:44:49;;;;;;;5.22;1.90;;;16.70;88.20;;;;;;6216660;23;20004;-90
2023/08/09 05:47:15;;;;;;;4.40;1.77;;;16.70;88.00;;;;;;6216646;23;20393;-89
2023/08/09 05:49:40;;;;;;;9.77;2.13;;;16.80;88.10;;;;;;6217822;23;19999;-88
2023/08/09 05:52:06;;;;;;;4.22;1.90;;;16.90;87.90;;;;;;6216399;23;20005;-88
2023/08/09 05:54:32;;;;;;;6.45;1.77;;;16.90;88.30;;;;;;6217927;23;20031;-87
2023/08/09 05:57:00;;;;;;;5.85;1.70;;;16.90;87.70;;;;;;6217806;23;20001;-88
2023/08/09 05:59:26;;;;;;;5.13;1.83;;;17.00;87.50;;;;;;6219730;23;20355;-88
2023/08/09 06:01:52;;;;;;;3.67;1.88;;;17.00;87.50;;;;;;6220211;23;20084;-87
2023/08/09 06:04:17;;;;;;;4.68;1.83;;;17.10;87.00;;;;;;6219077;23;20086;-88
2023/08/09 06:06:43;;;;;;;5.10;1.70;;;17.10;87.00;;;;;;6217537;23;20430;-88
2023/08/09 06:09:10;;;;;;;4.72;1.70;;;17.10;86.70;;;;;;6216996;23;20000;-88
2023/08/09 06:11:35;;;;;;;6.13;1.70;;;17.20;87.30;;;;;;6218296;23;20026;-88
2023/08/09 06:14:01;;;;;;;4.20;1.65;;;17.30;86.60;;;;;;6218202;23;20071;-88
2023/08/09 06:16:27;;;;;;;4.85;1.67;;;17.30;86.70;;;;;;6219355;23;20011;-89
2023/08/09 06:18:52;;;;;;;4.13;1.67;;;17.30;86.70;;;;;;6218195;23;20001;-88
2023/08/09 06:21:18;;;;;;;5.95;1.58;;;17.40;86.30;;;;;;6218291;23;20370;-90
2023/08/09 06:23:44;;;;;;;4.20;1.67;;;17.50;85.70;;;;;;6217183;23;20003;-89
2023/08/09 06:26:09;;;;;;;4.57;1.50;;;17.50;85.70;;;;;;6217291;23;20004;-88
2023/08/09 06:28:35;;;;;;;4.20;1.65;;;17.50;85.80;;;;;;6216949;23;20004;-89
2023/08/09 06:31:01;;;;;;;4.65;1.60;;;17.50;85.70;;;;;;6219632;23;20009;-89
2023/08/09 06:33:26;;;;;;;5.60;1.80;;;17.50;86.10;;;;;;6218109;23;20358;-88
2023/08/09 06:35:52;;;;;;;3.85;2.03;;;17.50;85.40;;;;;;6217410;23;20016;-88
2023/08/09 06:38:19;;;;;;;4.07;1.50;;;17.60;85.80;;;;;;6220177;23;20054;-89
2023/08/09 06:40:44;;;;;;;4.53;1.77;;;17.60;85.40;;;;;;6219422;23;20056;-89
2023/08/09 06:43:10;;;;;;;4.40;1.83;;;17.60;85.70;;;;;;6219902;23;20005;-91
2023/08/09 06:45:38;;;;;;;5.43;2.42;;;17.50;86.30;;;;;;6218971;23;20008;-91
2023/08/09 06:48:04;;;;;;;4.53;1.48;;;17.40;86.80;;;;;;6217750;23;19997;-89
2023/08/09 06:50:30;;;;;;;4.30;1.60;;;17.40;86.70;;;;;;6218322;23;20000;-87
2023/08/09 06:52:56;;;;;;;6.90;1.90;;;17.60;86.30;;;;;;6217480;23;20009;-87
2023/08/09 06:55:22;;;;;;;4.28;1.45;;;17.70;85.90;;;;;;6217763;23;20306;-87
2023/08/09 06:57:47;;;;;;;7.10;2.50;;;18.00;85.40;;;;;;6219641;23;20032;-88
2023/08/09 07:00:16;;;;;;;5.38;1.65;;;18.10;85.00;;;;;;6220032;23;20046;-86
2023/08/09 07:02:47;;;;;;;4.50;1.85;;;18.10;84.70;;;;;;6219776;23;20071;-87
2023/08/09 07:05:18;;;;;;;4.78;1.65;;;18.00;85.00;;;;;;6215166;23;20005;-89
2023/08/09 07:07:45;;;;;;;4.43;1.70;;;18.00;85.30;;;;;;6216829;23;20007;-88
2023/08/09 07:10:12;;;;;;;4.97;1.60;;;17.80;85.70;;;;;;6216429;23;20248;-86
2023/08/09 07:12:38;;;;;;;4.43;1.50;;;17.80;86.00;;;;;;6215477;23;20035;-88
2023/08/09 07:15:08;;;;;;;3.88;1.88;;;18.10;85.60;;;;;;6217549;23;20035;-88
2023/08/09 07:17:38;;;;;;;4.28;1.90;;;18.10;84.60;;;;;;6219106;23;20270;-87
2023/08/09 07:20:14;;;;;;;4.00;1.65;;;18.10;84.90;;;;;;6218637;23;20012;-88
2023/08/09 07:22:40;;;;;;;5.03;2.08;;;18.10;84.80;;;;;;6218777;23;20032;-88
2023/08/09 07:25:09;;;;;;;4.25;2.00;;;18.00;85.20;;;;;;6219476;23;19996;-85
2023/08/09 07:27:45;;;;;;;5.03;1.90;;;18.00;85.30;;;;;;6217491;23;20296;-89
2023/08/09 07:30:15;;;;;;;4.18;2.10;;;17.90;85.60;;;;;;6219452;23;20004;-88
2023/08/09 07:32:41;;;;;;;8.43;2.35;;;17.80;86.20;;;;;;6216715;23;20004;-89
2023/08/09 07:35:09;;;;;;;6.55;2.20;;;17.70;86.10;;;;;;6219158;23;20071;-88
2023/08/09 07:37:36;;;;;;;6.32;2.20;;;17.70;86.70;;;;;;6219596;23;20048;-90
2023/08/09 07:40:04;;;;;;;4.43;1.75;;;17.70;86.90;;;;;;6218346;23;20015;-89
2023/08/09 07:42:29;;;;;;;4.30;1.60;;;17.70;86.70;;;;;;6217794;23;20366;-89
2023/08/09 07:44:55;;;;;;;5.13;1.90;;;17.70;86.90;;;;;;6218375;23;20063;-88
2023/08/09 07:47:21;;;;;;;5.05;2.00;;;17.80;87.00;;;;;;6217213;23;20083;-87
2023/08/09 07:49:46;;;;;;;7.45;2.20;;;17.90;86.90;;;;;;6218109;23;20059;-89
2023/08/09 07:52:12;;;;;;;4.65;1.83;;;17.90;87.20;;;;;;6217757;23;20035;-89
2023/08/09 07:54:37;;;;;;;4.78;1.80;;;17.90;87.00;;;;;;6218690;23;20072;-89
2023/08/09 07:57:04;;;;;;;5.70;1.80;;;18.00;87.20;;;;;;6219730;23;20355;-88
2023/08/09 07:59:29;;;;;;;4.75;1.80;;;18.40;87.10;;;;;;6219417;23;20079;-89
2023/08/09 08:01:55;;;;;;;6.45;2.03;;;18.50;86.60;;;;;;6219394;23;20028;-88
2023/08/09 08:04:20;;;;;;;7.72;2.47;;;18.70;85.70;;;;;;6217780;23;20004;-88
2023/08/09 08:06:48;;;;;;;3.45;1.63;;;18.70;85.80;;;;;;6218014;23;19997;-89
2023/08/09 08:09:14;;;;;;;5.80;2.03;;;18.70;85.80;;;;;;6218724;23;20266;-89
2023/08/09 08:11:40;;;;;;;6.03;2.05;;;18.90;85.40;;;;;;6218846;23;20084;-89
2023/08/09 08:14:07;;;;;;;4.70;1.88;;;19.00;85.30;;;;;;6218524;23;20007;-89
2023/08/09 08:16:32;;;;;;;9.15;2.33;;;18.90;85.10;;;;;;6218328;23;20009;-89
2023/08/09 08:18:58;;;;;;;4.15;1.63;;;18.80;85.90;;;;;;6219333;23;20135;-89
2023/08/09 08:21:24;;;;;;;5.88;1.90;;;18.90;85.30;;;;;;6216454;23;20056;-88
2023/08/09 08:23:49;;;;;;;4.60;1.92;;;18.90;85.80;;;;;;6217648;23;20011;-89
2023/08/09 08:26:15;;;;;;;3.83;1.50;;;18.90;86.20;;;;;;6218976;23;20004;-89
2023/08/09 08:28:41;;;;;;;5.88;1.88;;;18.70;86.10;;;;;;6218303;23;19996;-89
2023/08/09 08:31:07;;;;;;;7.03;2.00;;;18.50;86.80;;;;;;6219553;23;20036;-88
2023/08/09 08:33:35;;;;;;;4.40;1.75;;;18.50;87.30;;;;;;6217682;23;20107;-87
2023/08/09 08:36:02;;;;;;;4.63;1.80;;;18.70;87.40;;;;;;6215294;23;20355;-88
2023/08/09 08:38:28;;;;;;;6.25;2.10;;;18.80;87.00;;;;;;6216367;23;20029;-88
2023/08/09 08:40:54;;;;;;;5.90;2.10;;;18.80;86.60;;;;;;6216994;23;20455;-89
2023/08/09 08:43:20;;;;;;;5.93;2.05;;;18.80;87.00;;;;;;6217189;23;20051;-90
2023/08/09 08:45:49;;;;;;;5.72;1.95;;;18.90;86.40;;;;;;6218045;23;19996;-89
2023/08/09 08:48:16;;;;;;;4.00;1.90;;;19.20;85.60;;;;;;6217920;23;19996;-88
2023/08/09 08:50:43;;;;;;;4.43;1.80;;;19.40;85.40;;;;;;6216886;23;20008;-88
2023/08/09 08:53:11;;;;;;;3.50;1.70;;;19.40;84.90;;;;;;6218000;23;20001;-89
2023/08/09 08:55:37;;;;;;;6.95;2.08;;;19.80;84.70;;;;;;6216257;23;20013;-90
2023/08/09 08:58:03;;;;;;;5.35;1.85;;;20.20;83.60;;;;;;6216160;23;20008;-90
2023/08/09 09:00:29;;;;;;;5.03;1.67;;;20.30;83.00;;;;;;6215738;23;20005;-89
2023/08/09 09:02:56;;;;;;;3.95;2.00;;;20.20;82.00;;;;;;6216906;23;20051;-89
2023/08/09 09:05:23;;;;;;;4.68;2.20;;;19.80;83.90;;;;;;6215445;23;20099;-89
2023/08/09 09:07:51;;;;;;;4.75;1.80;;;19.70;84.10;;;;;;6216563;23;19996;-88
2023/08/09 09:10:19;;;;;;;5.65;1.98;;;19.90;83.20;;;;;;6216049;23;20578;-89
2023/08/09 09:12:45;;;;;;;7.07;2.15;;;20.00;83.20;;;;;;6218659;23;20028;-89
2023/08/09 09:15:11;;;;;;;5.93;2.40;;;20.20;82.60;;;;;;6217532;23;20027;-89
2023/08/09 09:17:45;;;;;;;5.72;2.10;;;20.10;82.70;;;;;;6217791;23;20736;-88
2023/08/09 09:20:26;;;;;;;5.88;2.15;;;20.10;82.80;;;;;;6215759;23;20004;-89
2023/08/09 09:22:52;;;;;;;4.72;1.85;;;20.00;83.30;;;;;;6216424;23;20088;-90
2023/08/09 09:25:22;;;;;;;5.57;2.25;;;20.10;83.70;;;;;;6216869;23;20008;-88
2023/08/09 09:27:52;;;;;;;5.70;1.88;;;20.20;83.60;;;;;;6217399;23;20016;-89
2023/08/09 09:30:24;;;;;;;5.65;2.28;;;20.00;83.80;;;;;;6216390;23;20039;-89
2023/08/09 09:32:59;;;;;;;7.60;2.00;;;20.00;84.00;;;;;;6217655;23;20005;-88
2023/08/09 09:35:28;;;;;;;3.80;1.77;;;19.50;84.30;;;;;;6215309;23;20766;-88
2023/08/09 09:37:55;;;;;;;6.50;2.00;;;19.20;84.80;;;;;;6218673;23;20021;-91
2023/08/09 09:40:32;;;;;;;6.40;1.95;;;18.90;86.70;;;;;;6217505;23;20240;-90
2023/08/09 09:42:59;;;;;;;5.43;1.90;;;18.80;87.20;;;;;;6216519;23;20009;-89
2023/08/09 09:45:27;;;;;;;4.60;1.80;;;18.80;87.20;;;;;;6218182;23;20032;-89
2023/08/09 09:47:54;;;;;;;4.10;2.00;;;18.70;86.90;;;;;;6218510;23;19993;-87
2023/08/09 09:50:22;;;;;;;6.18;2.03;;;18.60;86.90;;;;;;6216227;23;20072;-87
2023/08/09 09:52:49;;;;;;;6.15;2.20;;;18.60;86.90;;;;;;6216400;23;20004;-88
2023/08/09 09:55:20;;;;;;;4.57;2.22;;;18.80;86.80;;;;;;6216565;23;20278;-89
2023/08/09 09:57:47;;;;;;;4.97;2.13;;;19.00;86.30;;;;;;6217053;23;20012;-83
2023/08/09 10:00:14;;;;;;;7.00;2.13;;;19.10;86.60;;;;;;6190268;23;20286;-86
2023/08/09 10:02:51;;;;;;;6.63;3.05;;;19.20;86.10;;;;;;6216687;23;20001;-90
2023/08/09 10:05:38;;;;;;;5.28;2.75;;;19.00;86.20;;;;;;6214591;23;20004;-87
2023/08/09 10:08:09;;;;;;;6.47;2.45;;;18.90;86.50;;;;;;6215353;23;20003;-87
2023/08/09 10:10:38;;;;;;;7.00;2.42;;;18.90;86.90;;;;;;6215593;23;20382;-87
2023/08/09 10:13:07;;;;;;;4.80;1.80;;;18.90;87.20;;;;;;6217730;23;20362;-87
2023/08/09 10:15:42;;;;;;;6.82;2.08;;;19.30;86.50;;;;;;6214682;23;20012;-87
2023/08/09 10:18:20;;;;;;;5.60;2.20;;;19.70;85.10;;;;;;6214460;23;20259;-88
2023/08/09 10:20:50;;;;;;;5.93;2.10;;;20.00;83.60;;;;;;6217200;23;20011;-87
2023/08/09 10:23:25;;;;;;;4.28;1.90;;;20.40;83.40;;;;;;6218631;23;20001;-87
2023/08/09 10:26:03;;;;;;;7.45;2.47;;;20.70;82.60;;;;;;6217496;23;20091;-89
2023/08/09 10:28:46;;;;;;;7.97;2.40;;;20.80;81.20;;;;;;6216858;23;20028;-89
2023/08/09 10:31:15;;;;;;;6.30;1.92;;;20.80;82.10;;;;;;6216491;23;20086;-88
2023/08/09 10:34:17;;;;;;;5.75;2.10;;;20.80;81.70;;;;;;6216719;23;20004;-87
2023/08/09 10:36:59;;;;;;;8.70;2.00;;;21.40;82.10;;;;;;6214277;23;20024;-89
2023/08/09 10:39:38;;;;;;;;;;;;;;;;;;;;;
2023/08/09 10:42:09;;;;;;;9.40;1.90;;;21.90;79.30;;;;;;6217474;23;20079;-88
2023/08/09 10:44:48;;;;;;;4.22;1.90;;;21.70;80.00;;;;;;6217926;23;20024;-88
2023/08/09 10:47:24;;;;;;;6.65;2.50;;;22.30;79.60;;;;;;6218584;23;20055;-88
2023/08/09 10:49:53;;;;;;;5.72;2.08;;;22.80;77.50;;;;;;6220086;23;20257;-89
2023/08/09 10:52:51;;;;;;;4.53;1.90;;;23.30;76.70;;;;;;6217864;23;20258;-88
2023/08/09 10:55:21;;;;;;;5.93;1.90;;;23.40;75.70;;;;;;6211226;23;20011;-89
2023/08/09 10:57:49;;;;;;;6.75;2.10;;;22.50;77.20;;;;;;6218988;23;20028;-88
2023/08/09 11:00:16;;;;;;;7.35;2.15;;;22.20;79.20;;;;;;6218544;23;20016;-91
2023/08/09 11:02:49;;;;;;;4.60;2.20;;;22.00;79.60;;;;;;6219415;23;20381;-88
2023/08/09 11:05:15;;;;;;;3.83;1.90;;;21.70;79.80;;;;;;6218783;23;20050;-90
2023/08/09 11:07:48;;;;;;;7.45;2.10;;;22.10;80.80;;;;;;6220295;23;19996;-89
2023/08/09 11:10:15;;;;;;;4.30;1.90;;;22.80;78.10;;;;;;6219137;23;20005;-89
2023/08/09 11:12:43;;;;;;;4.60;1.90;;;23.00;78.00;;;;;;6219885;23;20027;-88
2023/08/09 11:15:09;;;;;;;4.15;1.95;;;23.00;77.80;;;;;;6219570;23;20005;-91
2023/08/09 11:17:37;;;;;;;5.25;2.03;;;22.70;77.10;;;;;;6218492;23;20099;-88
2023/08/09 11:20:13;;;;;;;6.30;2.75;;;22.90;77.80;;;;;;6217702;23;20012;-88
2023/08/09 11:22:43;;;;;;;4.22;2.15;;;23.10;77.20;;;;;;6219977;23;20064;-92
2023/08/09 11:25:09;;;;;;;6.30;2.03;;;22.90;77.10;;;;;;6219448;23;20275;-91
2023/08/09 11:27:38;;;;;;;5.57;1.88;;;22.60;78.30;;;;;;6219425;23;20003;-90
2023/08/09 11:30:08;;;;;;;5.47;2.00;;;22.20;77.90;;;;;;6220000;23;20007;-90
2023/08/09 11:32:34;;;;;;;4.07;1.95;;;22.40;78.70;;;;;;6217334;23;20008;-89
2023/08/09 11:35:00;;;;;;;7.80;1.98;;;22.40;79.20;;;;;;6217844;23;20011;-89
2023/08/09 11:37:27;;;;;;;7.60;2.15;;;22.20;79.60;;;;;;6214680;23;20318;-90
2023/08/09 11:39:53;;;;;;;4.70;1.80;;;22.20;79.80;;;;;;6217164;23;20009;-90
2023/08/09 11:42:19;;;;;;;4.47;2.03;;;22.20;79.00;;;;;;6218745;23;20023;-89
2023/08/09 11:44:47;;;;;;;3.90;1.88;;;21.70;79.90;;;;;;6217563;23;20051;-89
2023/08/09 11:47:13;;;;;;;5.85;2.38;;;21.60;79.90;;;;;;6218935;23;20046;-88
2023/08/09 11:49:40;;;;;;;3.42;1.70;;;21.50;81.00;;;;;;6217396;23;20362;-90
2023/08/09 11:52:08;;;;;;;5.22;2.00;;;22.50;79.70;;;;;;6216244;23;20275;-91
2023/08/09 11:54:37;;;;;;;7.30;1.90;;;22.50;78.50;;;;;;6217697;23;20363;-90
2023/08/09 11:57:34;;;;;;;6.43;2.78;;;22.10;79.20;;;;;;6216584;23;20007;-92
2023/08/09 12:00:01;;;;;;;4.38;1.77;;;22.20;79.30;;;;;;6194019;23;20005;-89
2023/08/09 12:02:28;;;;;;;5.13;1.80;;;22.20;79.10;;;;;;6217976;23;20489;-90
2023/08/09 12:04:56;;;;;;;5.75;1.95;;;21.90;80.30;;;;;;6217910;23;20004;-90
2023/08/09 12:07:31;;;;;;;4.55;2.00;;;22.40;79.50;;;;;;6216757;23;20386;-91
2023/08/09 12:10:01;;;;;;;5.65;2.17;;;22.40;79.30;;;;;;6218788;23;20015;-90
2023/08/09 12:12:39;;;;;;;3.30;1.50;;;22.30;79.80;;;;;;6217723;23;20359;-89
2023/08/09 12:15:49;;;;;;;5.55;2.28;;;22.40;80.10;;;;;;6218676;23;20005;-89
2023/08/09 12:18:16;;;;;;;7.47;2.05;;;23.30;78.40;;;;;;6180326;23;20033;-90
2023/08/09 12:20:42;;;;;;;5.88;2.10;;;23.40;77.60;;;;;;6218511;23;20020;-90
2023/08/09 12:23:15;;;;;;;3.92;1.50;;;23.50;77.20;;;;;;6219506;23;20007;-90
2023/08/09 12:25:43;;;;;;;3.72;1.55;;;23.00;77.60;;;;;;6216851;23;20427;-89
2023/08/09 12:28:09;;;;;;;4.28;1.77;;;22.60;79.00;;;;;;6219227;23;20016;-89
2023/08/09 12:30:56;;;;;;;3.90;1.80;;;22.40;79.50;;;;;;6223211;23;20005;-87
2023/08/09 12:33:22;;;;;;;4.20;1.80;;;22.60;79.30;;;;;;6160878;23;20005;-90
2023/08/09 12:35:50;;;;;;;4.97;1.80;;;22.60;79.40;;;;;;6170866;23;20009;-89
2023/08/09 12:38:16;;;;;;;4.93;1.80;;;22.50;78.60;;;;;;6146308;23;20021;-89
2023/08/09 12:40:42;;;;;;;4.47;2.13;;;22.60;78.80;;;;;;6168464;23;20060;-89
2023/08/09 12:43:09;;;;;;;6.90;2.00;;;23.30;77.70;;;;;;6166848;23;20012;-90
2023/08/09 12:45:34;;;;;;;8.70;2.05;;;23.70;77.30;;;;;;6118113;23;20069;-89
2023/08/09 12:48:01;;;;;;;5.20;1.70;;;23.80;76.40;;;;;;6145612;23;20002;-90
2023/08/09 12:50:34;;;;;;;7.50;2.10;;;23.30;76.10;;;;;;6164329;23;20014;-88
2023/08/09 12:53:00;;;;;;;4.05;1.67;;;23.10;76.70;;;;;;6142610;23;20037;-90